createdAt,value
2023-05-10T00:00:19.173Z,4.13
2023-05-10T00:02:45.878Z,0.43
2023-05-10T00:05:12.382Z,0.50
2023-05-10T00:07:38.966Z,0.40
2023-05-10T00:10:05.852Z,1.13
2023-05-10T00:12:32.344Z,0.45
2023-05-10T00:14:58.856Z,0.30
2023-05-10T00:17:25.542Z,0.73
2023-05-10T00:19:52.043Z,0.73
2023-05-10T00:22:18.513Z,1.70
2023-05-10T00:24:45.012Z,0.80
2023-05-10T00:27:11.473Z,0.95
2023-05-10T00:29:37.992Z,1.10
2023-05-10T00:32:04.752Z,2.00
2023-05-10T00:34:31.714Z,1.20
2023-05-10T00:36:58.187Z,1.10
2023-05-10T00:39:24.708Z,1.05
2023-05-10T00:41:51.132Z,0.77
2023-05-10T00:44:17.722Z,0.80
2023-05-10T00:46:44.375Z,0.88
2023-05-10T00:49:11.377Z,1.95
2023-05-10T00:51:37.962Z,1.35
2023-05-10T00:54:05.928Z,1.35
2023-05-10T00:56:32.625Z,0.90
2023-05-10T00:58:59.197Z,0.80
2023-05-10T01:01:26.043Z,2.05
2023-05-10T01:03:53.451Z,0.55
2023-05-10T01:06:19.976Z,0.80
2023-05-10T01:08:46.459Z,0.68
2023-05-10T01:11:13.200Z,0.80
2023-05-10T01:13:43.238Z,1.42
2023-05-10T01:16:09.910Z,1.30
2023-05-10T01:18:39.840Z,1.00
2023-05-10T01:21:18.266Z,1.52
2023-05-10T01:24:22.198Z,2.10
2023-05-10T01:27:03.987Z,2.80
2023-05-10T01:29:51.475Z,3.35
2023-05-10T01:32:31.491Z,4.45
2023-05-10T01:35:07.305Z,5.18
2023-05-10T01:37:59.492Z,6.28
2023-05-10T01:40:58.249Z,6.32
2023-05-10T01:43:34.869Z,5.43
2023-05-10T01:46:15.430Z,4.47
2023-05-10T01:48:49.439Z,4.45
2023-05-10T01:51:24.308Z,4.32
2023-05-10T01:53:55.094Z,4.13
2023-05-10T01:56:25.460Z,4.00
2023-05-10T01:58:53.812Z,3.70
2023-05-10T02:01:22.546Z,3.80
2023-05-10T02:03:52.379Z,4.05
2023-05-10T02:06:22.453Z,3.40
2023-05-10T02:08:50.560Z,2.95
2023-05-10T02:11:19.448Z,2.95
2023-05-10T02:13:48.399Z,2.85
2023-05-10T02:16:17.169Z,2.20
2023-05-10T02:18:44.147Z,2.92
2023-05-10T02:21:11.840Z,2.38
2023-05-10T02:23:39.757Z,1.98
2023-05-10T02:26:07.528Z,1.92
2023-05-10T02:28:36.268Z,1.67
2023-05-10T02:31:03.624Z,1.63
2023-05-10T02:33:32.696Z,1.55
2023-05-10T02:35:59.983Z,1.63
2023-05-10T02:38:27.778Z,2.78
2023-05-10T02:40:55.319Z,2.20
2023-05-10T02:43:24.330Z,4.55
2023-05-10T02:45:52.928Z,2.25
2023-05-10T02:48:19.489Z,2.40
2023-05-10T02:50:49.522Z,3.08
2023-05-10T02:53:28.281Z,2.72
2023-05-10T02:55:59.772Z,2.38
2023-05-10T02:58:26.317Z,2.97
2023-05-10T03:00:52.913Z,2.85
2023-05-10T03:03:20.942Z,2.70
2023-05-10T03:05:47.386Z,3.00
2023-05-10T03:08:13.958Z,4.15
2023-05-10T03:10:56.581Z,3.20
2023-05-10T03:13:41.679Z,3.35
2023-05-10T03:16:16.867Z,4.15
2023-05-10T03:18:49.237Z,3.30
2023-05-10T03:21:18.869Z,3.40
2023-05-10T03:23:52.378Z,3.58
2023-05-10T03:26:23.757Z,3.88
2023-05-10T03:28:51.182Z,3.80
2023-05-10T03:31:18.988Z,3.78
2023-05-10T03:33:49.906Z,3.72
2023-05-10T03:36:16.969Z,3.70
2023-05-10T03:38:43.440Z,5.15
2023-05-10T03:41:09.996Z,4.22
2023-05-10T03:43:36.516Z,4.55
2023-05-10T03:46:06.508Z,4.05
2023-05-10T03:48:34.008Z,4.40
2023-05-10T03:51:00.401Z,4.05
2023-05-10T03:53:27.843Z,4.60
2023-05-10T03:55:54.295Z,6.35
2023-05-10T03:58:20.730Z,4.75
2023-05-10T04:00:47.286Z,4.60
2023-05-10T04:03:13.883Z,5.15
2023-05-10T04:05:40.738Z,5.30
2023-05-10T04:08:07.565Z,5.22
2023-05-10T04:10:34.085Z,7.68
2023-05-10T04:13:00.600Z,5.43
2023-05-10T04:15:27.171Z,5.20
2023-05-10T04:17:54.549Z,5.93
2023-05-10T04:20:21.139Z,6.15
2023-05-10T04:22:47.735Z,5.90
2023-05-10T04:25:14.335Z,6.25
2023-05-10T04:27:40.834Z,5.57
2023-05-10T04:30:08.118Z,5.75
2023-05-10T04:32:34.670Z,6.20
2023-05-10T04:35:01.173Z,6.15
2023-05-10T04:37:27.603Z,6.75
2023-05-10T04:39:54.048Z,7.95
2023-05-10T04:42:20.522Z,6.85
2023-05-10T04:44:47.105Z,7.32
2023-05-10T04:47:14.222Z,7.30
2023-05-10T04:49:40.613Z,8.23
2023-05-10T04:52:07.230Z,6.63
2023-05-10T04:54:33.649Z,6.70
2023-05-10T04:57:00.024Z,8.20
2023-05-10T04:59:26.724Z,6.50
2023-05-10T05:01:53.161Z,6.97
2023-05-10T05:04:19.569Z,7.13
2023-05-10T05:06:46.079Z,5.75
2023-05-10T05:09:12.485Z,5.65
2023-05-10T05:11:39.176Z,7.85
2023-05-10T05:14:05.614Z,5.25
2023-05-10T05:16:33.041Z,5.13
2023-05-10T05:19:00.902Z,6.30
2023-05-10T05:21:28.091Z,7.40
2023-05-10T05:23:54.530Z,6.20
2023-05-10T05:26:21.143Z,6.85
2023-05-10T05:28:49.376Z,6.32
2023-05-10T05:31:15.861Z,6.35
2023-05-10T05:33:42.274Z,5.93
2023-05-10T05:36:08.911Z,7.07
2023-05-10T05:38:35.309Z,6.50
2023-05-10T05:41:01.744Z,6.55
2023-05-10T05:43:28.245Z,6.95
2023-05-10T05:45:54.987Z,8.52
2023-05-10T05:48:21.888Z,7.55
2023-05-10T05:50:55.761Z,8.95
2023-05-10T05:53:22.244Z,9.10
2023-05-10T05:55:56.182Z,9.93
2023-05-10T05:58:23.378Z,9.05
2023-05-10T06:00:50.520Z,8.70
2023-05-10T06:03:17.245Z,9.77
2023-05-10T06:05:44.176Z,10.35
2023-05-10T06:08:10.790Z,14.45
2023-05-10T06:10:37.721Z,12.45
2023-05-10T06:13:04.141Z,13.70
2023-05-10T06:18:21.339Z,13.40
2023-05-10T06:20:47.854Z,14.13
2023-05-10T06:23:14.301Z,12.20
2023-05-10T06:25:41.208Z,19.15
2023-05-10T06:28:07.735Z,18.40
2023-05-10T06:30:34.207Z,18.17
2023-05-10T06:33:00.866Z,16.45
2023-05-10T06:35:27.401Z,15.98
2023-05-10T06:37:54.382Z,20.58
2023-05-10T06:40:21.021Z,18.73
2023-05-10T06:42:48.695Z,19.45
2023-05-10T06:45:16.511Z,22.45
2023-05-10T06:47:43.400Z,18.48
2023-05-10T06:50:10.605Z,22.58
2023-05-10T06:52:37.061Z,20.80
2023-05-10T06:55:05.366Z,21.73
2023-05-10T06:57:32.771Z,19.80
2023-05-10T07:00:00.048Z,19.25
2023-05-10T07:02:27.921Z,21.73
2023-05-10T07:04:55.119Z,22.52
2023-05-10T07:07:21.861Z,22.42
2023-05-10T07:09:48.399Z,22.27
2023-05-10T07:12:15.910Z,21.40
2023-05-10T07:14:43.331Z,20.40
2023-05-10T07:17:10.312Z,21.52
2023-05-10T07:19:37.167Z,20.20
2023-05-10T07:22:03.860Z,22.90
2023-05-10T07:24:30.875Z,24.42
2023-05-10T07:26:57.426Z,27.02
2023-05-10T07:29:23.968Z,29.95
2023-05-10T07:31:50.514Z,28.38
2023-05-10T07:34:17.084Z,29.58
2023-05-10T07:36:43.662Z,31.35
2023-05-10T07:39:11.461Z,33.50
2023-05-10T07:41:39.659Z,34.17
2023-05-10T07:44:07.190Z,37.92
2023-05-10T07:46:36.741Z,29.80
2023-05-10T07:49:03.299Z,29.50
2023-05-10T07:51:29.859Z,33.33
2023-05-10T07:53:56.284Z,32.22
2023-05-10T07:56:32.638Z,40.38
2023-05-10T07:59:08.351Z,37.20
2023-05-10T08:01:35.966Z,34.15
2023-05-10T08:04:03.360Z,34.80
2023-05-10T08:06:30.794Z,31.75
2023-05-10T08:08:57.595Z,34.75
2023-05-10T08:11:24.148Z,35.65
2023-05-10T08:13:51.909Z,35.10
2023-05-10T08:16:18.584Z,31.40
2023-05-10T08:18:46.797Z,32.67
2023-05-10T08:21:14.770Z,35.63
2023-05-10T08:23:41.737Z,30.95
2023-05-10T08:26:08.251Z,38.08
2023-05-10T08:28:34.723Z,34.63
2023-05-10T08:31:01.255Z,34.08
2023-05-10T08:33:27.749Z,36.15
2023-05-10T08:35:54.328Z,31.58
2023-05-10T08:38:20.868Z,34.22
2023-05-10T08:40:51.756Z,31.35
2023-05-10T08:43:19.148Z,33.20
2023-05-10T08:45:47.936Z,30.00
2023-05-10T08:48:15.749Z,30.35
2023-05-10T08:50:44.001Z,31.15
2023-05-10T08:53:12.473Z,27.90
2023-05-10T08:55:41.159Z,34.20
2023-05-10T08:58:07.860Z,30.13
2023-05-10T09:00:34.816Z,31.70
2023-05-10T09:03:02.636Z,29.88
2023-05-10T09:05:29.328Z,26.27
2023-05-10T09:07:56.104Z,24.35
2023-05-10T09:10:23.782Z,23.85
2023-05-10T09:12:50.811Z,31.15
2023-05-10T09:15:20.297Z,25.63
2023-05-10T09:17:48.094Z,26.73
2023-05-10T09:20:14.702Z,25.38
2023-05-10T09:22:41.201Z,25.00
2023-05-10T09:25:09.129Z,28.70
2023-05-10T09:27:40.053Z,28.20
2023-05-10T09:30:07.794Z,25.25
2023-05-10T09:32:42.048Z,25.63
2023-05-10T09:35:10.040Z,26.42
2023-05-10T09:37:36.680Z,26.08
2023-05-10T09:40:07.126Z,26.65
2023-05-10T09:42:33.641Z,28.77
2023-05-10T09:45:06.665Z,28.52
2023-05-10T09:50:05.569Z,31.20
2023-05-10T09:52:47.911Z,27.70
2023-05-10T09:55:15.020Z,31.17
2023-05-10T09:57:42.037Z,26.05
2023-05-10T10:00:11.046Z,25.13
2023-05-10T10:02:38.079Z,24.13
2023-05-10T10:05:07.444Z,23.48
2023-05-10T10:07:35.334Z,24.67
2023-05-10T10:10:03.611Z,24.73
2023-05-10T10:12:30.323Z,22.05
2023-05-10T10:14:57.278Z,23.73
2023-05-10T10:17:28.213Z,23.05
2023-05-10T10:19:56.495Z,18.88
2023-05-10T10:22:23.057Z,19.55
2023-05-10T10:24:51.408Z,19.45
2023-05-10T10:27:27.875Z,17.83
2023-05-10T10:30:32.140Z,17.45
2023-05-10T10:33:28.526Z,20.02
2023-05-10T10:35:59.037Z,20.08
2023-05-10T10:38:25.734Z,16.95
2023-05-10T10:41:10.513Z,23.05
2023-05-10T10:43:37.129Z,21.80
2023-05-10T10:46:18.176Z,21.15
2023-05-10T10:48:50.673Z,20.83
2023-05-10T10:51:17.201Z,23.05
2023-05-10T10:53:44.744Z,22.55
2023-05-10T10:56:17.690Z,20.45
2023-05-10T10:58:54.823Z,17.67
2023-05-10T11:01:21.725Z,18.58
2023-05-10T11:04:03.663Z,20.83
2023-05-10T11:06:35.311Z,19.63
2023-05-10T11:09:13.476Z,23.25
2023-05-10T11:11:53.104Z,22.95
2023-05-10T11:14:24.778Z,22.52
2023-05-10T11:16:51.768Z,22.65
2023-05-10T11:19:19.381Z,22.00
2023-05-10T11:21:51.953Z,19.70
2023-05-10T11:24:21.135Z,17.77
2023-05-10T11:26:51.373Z,19.08
2023-05-10T11:29:18.323Z,22.38
2023-05-10T11:31:46.549Z,18.48
2023-05-10T11:34:26.918Z,20.75
2023-05-10T11:36:55.318Z,19.25
2023-05-10T11:39:26.498Z,20.50
2023-05-10T11:41:53.051Z,19.95
2023-05-10T11:44:19.734Z,23.35
2023-05-10T11:46:46.458Z,17.70
2023-05-10T11:49:14.413Z,15.98
2023-05-10T11:51:43.071Z,15.40
2023-05-10T11:54:11.585Z,16.30
2023-05-10T11:56:39.657Z,18.00
2023-05-10T11:59:06.762Z,17.73
2023-05-10T12:01:33.673Z,17.52
2023-05-10T12:04:01.648Z,19.83
2023-05-10T12:06:33.105Z,16.70
2023-05-10T12:09:00.279Z,16.63
2023-05-10T12:11:28.525Z,17.10
2023-05-10T12:13:56.467Z,15.00
2023-05-10T12:16:29.789Z,15.00
2023-05-10T12:19:01.390Z,16.00
2023-05-10T12:21:29.814Z,15.45
2023-05-10T12:24:01.248Z,16.33
2023-05-10T12:26:29.456Z,15.75
2023-05-10T12:28:56.647Z,16.88
2023-05-10T12:31:23.164Z,14.35
2023-05-10T12:33:50.402Z,13.90
2023-05-10T12:36:17.642Z,15.27
2023-05-10T12:38:49.363Z,15.55
2023-05-10T12:41:17.868Z,15.48
2023-05-10T12:43:46.247Z,15.23
2023-05-10T12:46:18.157Z,15.63
2023-05-10T12:48:47.392Z,13.40
2023-05-10T12:51:16.473Z,11.93
2023-05-10T12:53:45.098Z,13.10
2023-05-10T12:56:12.661Z,12.95
2023-05-10T12:58:39.566Z,11.48
2023-05-10T13:01:06.710Z,12.90
2023-05-10T13:03:33.399Z,11.95
2023-05-10T13:05:59.889Z,12.93
2023-05-10T13:08:26.443Z,11.77
2023-05-10T13:10:53.165Z,12.18
2023-05-10T13:13:19.772Z,11.30
2023-05-10T13:15:46.188Z,9.98
2023-05-10T13:18:12.867Z,11.95
2023-05-10T13:20:39.494Z,10.20
2023-05-10T13:23:06.007Z,10.65
2023-05-10T13:25:32.679Z,10.95
2023-05-10T13:27:59.207Z,12.13
2023-05-10T13:30:26.108Z,12.93
2023-05-10T13:32:52.570Z,11.38
2023-05-10T13:35:19.123Z,10.68
2023-05-10T13:37:45.633Z,11.15
2023-05-10T13:40:12.652Z,10.50
2023-05-10T13:42:39.160Z,11.60
2023-05-10T13:45:06.393Z,9.07
2023-05-10T13:47:33.018Z,10.05
2023-05-10T13:49:59.534Z,14.60
2023-05-10T13:52:27.718Z,10.52
2023-05-10T13:54:56.132Z,9.13
2023-05-10T13:57:24.860Z,10.13
2023-05-10T13:59:51.570Z,9.93
2023-05-10T14:02:18.084Z,11.45
2023-05-10T14:04:44.559Z,12.18
2023-05-10T14:07:11.134Z,9.98
2023-05-10T14:09:37.747Z,11.25
2023-05-10T14:12:04.563Z,8.55
2023-05-10T14:14:31.075Z,9.73
2023-05-10T14:16:57.535Z,9.77
2023-05-10T14:19:24.031Z,9.82
2023-05-10T14:21:50.487Z,8.10
2023-05-10T14:24:16.950Z,8.18
2023-05-10T14:26:43.435Z,9.65
2023-05-10T14:29:12.149Z,7.70
2023-05-10T14:31:39.029Z,8.82
2023-05-10T14:34:06.730Z,9.68
2023-05-10T14:36:33.663Z,8.48
2023-05-10T14:39:00.164Z,8.43
2023-05-10T14:41:26.722Z,8.90
2023-05-10T14:43:53.574Z,8.77
2023-05-10T14:46:20.225Z,13.27
2023-05-10T14:48:46.688Z,7.53
2023-05-10T14:51:13.262Z,7.72
2023-05-10T14:53:39.759Z,9.95
2023-05-10T14:56:06.522Z,7.38
2023-05-10T14:58:34.213Z,6.15
2023-05-10T15:01:01.217Z,7.45
2023-05-10T15:03:28.192Z,7.35
2023-05-10T15:05:56.937Z,8.40
2023-05-10T15:08:24.842Z,6.45
2023-05-10T15:10:52.336Z,6.40
2023-05-10T15:13:18.880Z,7.85
2023-05-10T15:15:45.431Z,5.53
2023-05-10T15:18:12.170Z,6.30
2023-05-10T15:20:38.764Z,6.65
2023-05-10T15:23:05.338Z,6.55
2023-05-10T15:25:32.243Z,7.72
2023-05-10T15:27:58.670Z,7.45
2023-05-10T15:30:25.385Z,8.32
2023-05-10T15:32:52.194Z,6.80
2023-05-10T15:35:19.033Z,10.20
2023-05-10T15:37:45.654Z,4.93
2023-05-10T15:40:12.416Z,6.28
2023-05-10T15:42:38.957Z,6.90
2023-05-10T15:45:06.141Z,5.68
2023-05-10T15:47:32.894Z,6.07
2023-05-10T15:49:59.705Z,7.75
2023-05-10T15:52:26.217Z,7.22
2023-05-10T15:54:52.857Z,4.88
2023-05-10T15:57:19.363Z,6.00
2023-05-10T15:59:45.863Z,5.13
2023-05-10T16:02:12.502Z,5.82
2023-05-10T16:04:39.185Z,5.18
2023-05-10T16:07:05.845Z,6.32
2023-05-10T16:09:32.345Z,6.32
2023-05-10T16:11:58.922Z,4.78
2023-05-10T16:14:25.330Z,3.90
2023-05-10T16:16:52.267Z,4.30
2023-05-10T16:19:18.979Z,8.02
2023-05-10T16:21:45.753Z,4.57
2023-05-10T16:24:12.357Z,6.22
2023-05-10T16:26:41.014Z,5.35
2023-05-10T16:29:10.580Z,6.15
2023-05-10T16:31:37.384Z,4.75
2023-05-10T16:34:04.225Z,4.00
2023-05-10T16:36:31.470Z,4.50
2023-05-10T16:38:58.745Z,3.45
2023-05-10T16:41:26.495Z,6.53
2023-05-10T16:43:53.036Z,5.35
2023-05-10T16:46:19.483Z,4.45
2023-05-10T16:48:46.033Z,3.90
2023-05-10T16:51:12.503Z,7.25
2023-05-10T16:53:38.949Z,4.03
2023-05-10T16:56:05.692Z,5.13
2023-05-10T16:58:32.201Z,4.15
2023-05-10T17:00:58.739Z,3.60
2023-05-10T17:03:25.316Z,4.50
2023-05-10T17:05:51.969Z,7.00
2023-05-10T17:08:18.532Z,6.13
2023-05-10T17:10:45.015Z,4.35
2023-05-10T17:13:11.536Z,5.70
2023-05-10T17:15:39.144Z,3.97
2023-05-10T17:18:06.905Z,5.22
2023-05-10T17:20:34.066Z,4.95
2023-05-10T17:23:02.580Z,4.47
2023-05-10T17:25:29.336Z,5.43
2023-05-10T17:27:55.814Z,4.68
2023-05-10T17:30:26.305Z,6.18
2023-05-10T17:32:54.246Z,5.25
2023-05-10T17:35:21.393Z,4.10
2023-05-10T17:37:48.081Z,4.85
2023-05-10T17:40:14.814Z,6.15
2023-05-10T17:42:41.844Z,5.22
2023-05-10T17:45:09.137Z,5.75
2023-05-10T17:47:36.156Z,3.95
2023-05-10T17:50:02.655Z,3.63
2023-05-10T17:52:31.426Z,5.65
2023-05-10T17:54:59.691Z,5.25
2023-05-10T17:57:26.372Z,5.03
2023-05-10T17:59:52.725Z,3.92
2023-05-10T18:02:19.164Z,5.75
2023-05-10T18:04:45.788Z,7.32
2023-05-10T18:07:12.466Z,6.30
2023-05-10T18:09:38.982Z,5.07
2023-05-10T18:12:06.160Z,6.10
2023-05-10T18:14:40.511Z,7.10
2023-05-10T18:17:08.734Z,5.55
2023-05-10T18:19:35.327Z,4.40
2023-05-10T18:22:01.863Z,4.28
2023-05-10T18:24:38.335Z,5.20
2023-05-10T18:27:06.689Z,3.80
2023-05-10T18:29:33.373Z,3.97
2023-05-10T18:31:59.956Z,4.10
2023-05-10T18:34:26.523Z,3.88
2023-05-10T18:36:53.262Z,4.82
2023-05-10T18:39:20.086Z,5.93
2023-05-10T18:41:46.617Z,6.72
2023-05-10T18:44:13.149Z,7.38
2023-05-10T18:46:39.779Z,5.00
2023-05-10T18:49:08.349Z,6.60
2023-05-10T18:51:35.020Z,4.95
2023-05-10T18:54:01.551Z,5.03
2023-05-10T18:56:28.248Z,4.40
2023-05-10T18:58:54.940Z,5.82
2023-05-10T19:01:21.613Z,5.07
2023-05-10T19:03:48.212Z,7.80
2023-05-10T19:06:14.715Z,7.15
2023-05-10T19:08:41.250Z,6.47
2023-05-10T19:11:07.783Z,6.00
2023-05-10T19:13:34.410Z,6.88
2023-05-10T19:16:12.746Z,6.50
2023-05-10T19:18:40.555Z,6.65
2023-05-10T19:21:10.889Z,6.47
2023-05-10T19:23:39.061Z,7.10
2023-05-10T19:26:06.054Z,7.40
2023-05-10T19:28:32.704Z,7.97
2023-05-10T19:30:59.305Z,5.15
2023-05-10T19:33:26.176Z,5.40
2023-05-10T19:35:53.439Z,9.10
2023-05-10T19:38:22.132Z,6.18
2023-05-10T19:40:58.495Z,6.95
2023-05-10T19:43:26.206Z,6.53
2023-05-10T19:45:53.046Z,7.57
2023-05-10T19:48:19.622Z,5.45
2023-05-10T19:50:46.226Z,7.90
2023-05-10T19:53:12.737Z,6.05
2023-05-10T19:55:39.381Z,6.55
2023-05-10T19:58:06.084Z,6.82
2023-05-10T20:00:32.807Z,8.57
2023-05-10T20:02:59.593Z,6.78
2023-05-10T20:05:26.147Z,7.15
2023-05-10T20:07:52.859Z,8.38
2023-05-10T20:10:19.648Z,9.32
2023-05-10T20:12:53.964Z,6.50
2023-05-10T20:15:22.892Z,7.53
2023-05-10T20:17:53.921Z,8.75
2023-05-10T20:20:21.392Z,8.10
2023-05-10T20:22:48.767Z,7.72
2023-05-10T20:25:16.265Z,5.45
2023-05-10T20:27:42.808Z,8.27
2023-05-10T20:30:10.448Z,8.25
2023-05-10T20:32:38.120Z,8.25
2023-05-10T20:35:05.533Z,7.45
2023-05-10T20:37:32.114Z,6.28
2023-05-10T20:39:58.784Z,10.40
2023-05-10T20:42:25.826Z,6.05
2023-05-10T20:44:52.502Z,9.20
2023-05-10T20:47:19.553Z,7.70
2023-05-10T20:49:46.386Z,10.55
2023-05-10T20:52:13.164Z,6.97
2023-05-10T20:54:39.799Z,6.72
2023-05-10T20:57:06.426Z,6.70
2023-05-10T20:59:33.090Z,5.80
2023-05-10T21:02:00.006Z,7.60
2023-05-10T21:04:27.192Z,7.70
2023-05-10T21:06:55.734Z,5.68
2023-05-10T21:09:22.585Z,5.97
2023-05-10T21:11:50.066Z,8.35
2023-05-10T21:14:16.695Z,6.53
2023-05-10T21:16:43.585Z,8.85
2023-05-10T21:19:10.259Z,6.70
2023-05-10T21:21:36.728Z,6.18
2023-05-10T21:24:03.570Z,7.70
2023-05-10T21:26:30.079Z,8.98
2023-05-10T21:28:58.165Z,8.13
2023-05-10T21:31:24.785Z,9.52
2023-05-10T21:33:51.479Z,6.20
2023-05-10T21:36:18.267Z,7.35
2023-05-10T21:38:45.165Z,6.55
2023-05-10T21:41:11.770Z,6.55
2023-05-10T21:43:38.351Z,7.68
2023-05-10T21:46:05.032Z,7.00
2023-05-10T21:48:31.635Z,6.10
2023-05-10T21:50:59.103Z,5.93
2023-05-10T21:53:25.750Z,7.20
2023-05-10T21:55:52.478Z,5.75
2023-05-10T21:58:19.086Z,5.57
2023-05-10T22:00:45.662Z,7.43
2023-05-10T22:03:15.713Z,7.22
2023-05-10T22:05:42.391Z,7.28
2023-05-10T22:08:08.992Z,7.15
2023-05-10T22:10:35.538Z,11.13
2023-05-10T22:13:02.121Z,8.48
2023-05-10T22:15:28.884Z,8.57
2023-05-10T22:17:55.571Z,6.90
2023-05-10T22:20:22.256Z,8.80
2023-05-10T22:22:49.092Z,9.38
2023-05-10T22:25:16.068Z,7.38
2023-05-10T22:27:42.599Z,6.15
2023-05-10T22:30:09.565Z,6.60
2023-05-10T22:32:36.191Z,6.00
2023-05-10T22:35:03.335Z,5.60
2023-05-10T22:37:29.931Z,7.55
2023-05-10T22:39:56.485Z,6.85
2023-05-10T22:42:23.159Z,6.18
2023-05-10T22:44:49.728Z,5.57
2023-05-10T22:47:16.772Z,6.03
2023-05-10T22:49:43.303Z,6.93
2023-05-10T22:52:10.093Z,7.00
2023-05-10T22:54:36.647Z,5.68
2023-05-10T22:57:03.405Z,5.63
2023-05-10T22:59:30.303Z,7.70
2023-05-10T23:01:56.958Z,6.85
2023-05-10T23:04:23.611Z,5.57
2023-05-10T23:06:50.171Z,6.70
2023-05-10T23:09:17.127Z,7.68
2023-05-10T23:11:43.663Z,7.90
2023-05-10T23:14:10.201Z,7.07
2023-05-10T23:16:36.988Z,8.32
2023-05-10T23:19:03.610Z,7.70
2023-05-10T23:21:32.130Z,6.68
2023-05-10T23:23:59.090Z,8.07
2023-05-10T23:26:26.017Z,7.85
2023-05-10T23:28:52.668Z,8.88
2023-05-10T23:31:19.318Z,6.20
2023-05-10T23:33:45.905Z,10.15
2023-05-10T23:36:12.494Z,9.95
2023-05-10T23:38:39.435Z,8.75
2023-05-10T23:41:06.274Z,7.90
2023-05-10T23:43:32.926Z,9.77
2023-05-10T23:45:59.641Z,9.20
2023-05-10T23:48:26.403Z,7.85
2023-05-10T23:50:53.025Z,9.93
2023-05-10T23:53:19.671Z,9.32
2023-05-10T23:55:46.466Z,9.55
2023-05-10T23:58:13.101Z,8.02
